This is the latest recevied weather packets stored in our database for station/object PA3FNT-10. If no packets are shown the sender has not sent any weather packets the latest 1 day(s).
| Time | Temp. | Humidity | Pressure | Rain* | Wind** | Luminosity | Snow |
|---|---|---|---|---|---|---|---|
| 1777720483 | 23.33° C | 41% | 1017.5 hPa | - | - | - | - |
| 1777719583 | 22.22° C | 42% | 1017.6 hPa | - | - | - | - |
| 1777718721 | 21.67° C | 42% | 1017.7 hPa | - | - | - | - |
| 1777718682 | 21.67° C | 42% | 1017.7 hPa | - | - | - | - |
| 1777717782 | 22.78° C | 40% | 1017.5 hPa | - | - | - | - |
| 1777716881 | 21.11° C | 41% | 1017.7 hPa | - | - | - | - |
| 1777716024 | 20° C | 43% | 1017.4 hPa | - | - | - | - |
| 1777715981 | 20° C | 43% | 1017.4 hPa | - | - | - | - |
| 1777715081 | 19.44° C | 43% | 1017.4 hPa | - | - | - | - |
| 1777714222 | 18.89° C | 42% | 1017.6 hPa | - | - | - | - |
| 1777714180 | 18.89° C | 42% | 1017.6 hPa | - | - | - | - |
| 1777713280 | 15° C | 45% | 1017.7 hPa | - | - | - | - |
| 1777712423 | 14.44° C | 45% | 1017.8 hPa | - | - | - | - |
| 1777712380 | 14.44° C | 45% | 1017.8 hPa | - | - | - | - |
| 1777711480 | 15° C | 43% | 1017.6 hPa | - | - | - | - |
| 1777710624 | 15.56° C | 42% | 1017.8 hPa | - | - | - | - |
| 1777710580 | 15.56° C | 42% | 1017.8 hPa | - | - | - | - |
| 1777709680 | 17.22° C | 40% | 1017.8 hPa | - | - | - | - |
| 1777708780 | 17.78° C | 40% | 1017.6 hPa | - | - | - | - |
| 1777707921 | 17.78° C | 40% | 1017.3 hPa | - | - | - | - |
| 1777707879 | 17.78° C | 40% | 1017.3 hPa | - | - | - | - |
| 1777706979 | 17.22° C | 39% | 1017.5 hPa | - | - | - | - |
| 1777706079 | 16.67° C | 40% | 1017.7 hPa | - | - | - | - |
| 1777705178 | 17.22° C | 39% | 1017.9 hPa | - | - | - | - |
| 1777704278 | 18.33° C | 38% | 1018 hPa | - | - | - | - |
* Rain since midnight (hover to see other rain measurements)
** Current wind speed in m/s (hover to see current wind gust speed)